sensor_id;sensor_type;location;lat;lon;timestamp;P1;durP1;ratioP1;P2;durP2;ratioP2
16634;SDS011;8431;52.458;9.998;2023-06-26T00:00:45;19.08;;;17.70;;
16634;SDS011;8431;52.458;9.998;2023-06-26T00:03:13;19.25;;;18.05;;
16634;SDS011;8431;52.458;9.998;2023-06-26T00:05:41;19.20;;;18.00;;
16634;SDS011;8431;52.458;9.998;2023-06-26T00:08:08;19.80;;;18.30;;
16634;SDS011;8431;52.458;9.998;2023-06-26T00:10:35;21.98;;;20.15;;
16634;SDS011;8431;52.458;9.998;2023-06-26T00:13:02;20.13;;;18.92;;
16634;SDS011;8431;52.458;9.998;2023-06-26T00:15:29;19.15;;;17.70;;
16634;SDS011;8431;52.458;9.998;2023-06-26T00:17:56;18.15;;;16.85;;
16634;SDS011;8431;52.458;9.998;2023-06-26T00:20:24;18.83;;;17.30;;
16634;SDS011;8431;52.458;9.998;2023-06-26T00:22:52;18.50;;;17.15;;
16634;SDS011;8431;52.458;9.998;2023-06-26T00:25:20;18.95;;;17.73;;
16634;SDS011;8431;52.458;9.998;2023-06-26T00:27:47;18.27;;;16.92;;
16634;SDS011;8431;52.458;9.998;2023-06-26T00:30:14;18.40;;;17.20;;
16634;SDS011;8431;52.458;9.998;2023-06-26T00:32:41;17.83;;;16.73;;
16634;SDS011;8431;52.458;9.998;2023-06-26T00:35:08;18.08;;;16.65;;
16634;SDS011;8431;52.458;9.998;2023-06-26T00:37:35;19.48;;;18.13;;
16634;SDS011;8431;52.458;9.998;2023-06-26T00:40:04;18.50;;;17.20;;
16634;SDS011;8431;52.458;9.998;2023-06-26T00:42:31;18.20;;;16.52;;
16634;SDS011;8431;52.458;9.998;2023-06-26T00:44:58;19.10;;;17.42;;
16634;SDS011;8431;52.458;9.998;2023-06-26T00:47:25;18.83;;;17.33;;
16634;SDS011;8431;52.458;9.998;2023-06-26T00:49:54;19.25;;;17.90;;
16634;SDS011;8431;52.458;9.998;2023-06-26T00:52:22;19.00;;;17.55;;
16634;SDS011;8431;52.458;9.998;2023-06-26T00:54:49;18.60;;;17.40;;
16634;SDS011;8431;52.458;9.998;2023-06-26T00:57:18;18.63;;;17.42;;
16634;SDS011;8431;52.458;9.998;2023-06-26T00:59:45;19.10;;;17.92;;
16634;SDS011;8431;52.458;9.998;2023-06-26T01:02:13;19.02;;;17.67;;
16634;SDS011;8431;52.458;9.998;2023-06-26T01:04:45;16.77;;;15.77;;
16634;SDS011;8431;52.458;9.998;2023-06-26T01:07:13;17.23;;;16.23;;
16634;SDS011;8431;52.458;9.998;2023-06-26T01:09:44;17.35;;;16.35;;
16634;SDS011;8431;52.458;9.998;2023-06-26T01:12:12;18.02;;;16.90;;
16634;SDS011;8431;52.458;9.998;2023-06-26T01:14:41;17.38;;;16.20;;
16634;SDS011;8431;52.458;9.998;2023-06-26T01:17:08;18.13;;;17.02;;
16634;SDS011;8431;52.458;9.998;2023-06-26T01:19:39;18.27;;;16.70;;
16634;SDS011;8431;52.458;9.998;2023-06-26T01:22:10;17.85;;;16.48;;
16634;SDS011;8431;52.458;9.998;2023-06-26T01:24:44;17.25;;;16.02;;
16634;SDS011;8431;52.458;9.998;2023-06-26T01:27:20;17.70;;;16.20;;
16634;SDS011;8431;52.458;9.998;2023-06-26T01:29:49;18.27;;;16.92;;
16634;SDS011;8431;52.458;9.998;2023-06-26T01:32:17;16.85;;;15.85;;
16634;SDS011;8431;52.458;9.998;2023-06-26T01:34:44;17.40;;;16.40;;
16634;SDS011;8431;52.458;9.998;2023-06-26T01:37:12;18.20;;;17.00;;
16634;SDS011;8431;52.458;9.998;2023-06-26T01:39:39;17.50;;;16.50;;
16634;SDS011;8431;52.458;9.998;2023-06-26T01:42:06;17.17;;;16.08;;
16634;SDS011;8431;52.458;9.998;2023-06-26T01:44:36;18.70;;;17.55;;
16634;SDS011;8431;52.458;9.998;2023-06-26T01:47:07;17.52;;;16.33;;
16634;SDS011;8431;52.458;9.998;2023-06-26T01:49:42;17.20;;;15.88;;
16634;SDS011;8431;52.458;9.998;2023-06-26T01:52:14;17.08;;;16.08;;
16634;SDS011;8431;52.458;9.998;2023-06-26T01:54:49;17.50;;;16.17;;
16634;SDS011;8431;52.458;9.998;2023-06-26T01:57:21;17.55;;;16.40;;
16634;SDS011;8431;52.458;9.998;2023-06-26T01:59:53;16.95;;;15.95;;
16634;SDS011;8431;52.458;9.998;2023-06-26T02:02:22;17.98;;;16.95;;
16634;SDS011;8431;52.458;9.998;2023-06-26T02:04:50;17.00;;;15.65;;
16634;SDS011;8431;52.458;9.998;2023-06-26T02:07:17;17.70;;;16.38;;
16634;SDS011;8431;52.458;9.998;2023-06-26T02:09:44;17.63;;;16.38;;
16634;SDS011;8431;52.458;9.998;2023-06-26T02:12:11;17.30;;;16.20;;
16634;SDS011;8431;52.458;9.998;2023-06-26T02:14:38;17.90;;;16.88;;
16634;SDS011;8431;52.458;9.998;2023-06-26T02:17:07;18.05;;;16.52;;
16634;SDS011;8431;52.458;9.998;2023-06-26T02:19:34;17.85;;;16.67;;
16634;SDS011;8431;52.458;9.998;2023-06-26T02:22:01;16.77;;;15.60;;
16634;SDS011;8431;52.458;9.998;2023-06-26T02:24:28;17.10;;;16.02;;
16634;SDS011;8431;52.458;9.998;2023-06-26T02:26:55;18.45;;;17.25;;
16634;SDS011;8431;52.458;9.998;2023-06-26T02:29:22;16.80;;;15.80;;
16634;SDS011;8431;52.458;9.998;2023-06-26T02:31:49;17.70;;;16.63;;
16634;SDS011;8431;52.458;9.998;2023-06-26T02:34:18;19.23;;;17.52;;
16634;SDS011;8431;52.458;9.998;2023-06-26T02:36:45;17.67;;;16.35;;
16634;SDS011;8431;52.458;9.998;2023-06-26T02:39:12;16.65;;;15.63;;
16634;SDS011;8431;52.458;9.998;2023-06-26T02:41:39;17.25;;;16.15;;
16634;SDS011;8431;52.458;9.998;2023-06-26T02:44:06;17.73;;;16.42;;
16634;SDS011;8431;52.458;9.998;2023-06-26T02:46:33;17.40;;;16.30;;
16634;SDS011;8431;52.458;9.998;2023-06-26T02:49:00;15.93;;;14.93;;
16634;SDS011;8431;52.458;9.998;2023-06-26T02:51:28;16.35;;;15.05;;
16634;SDS011;8431;52.458;9.998;2023-06-26T02:53:55;16.42;;;15.38;;
16634;SDS011;8431;52.458;9.998;2023-06-26T02:56:22;18.38;;;16.88;;
16634;SDS011;8431;52.458;9.998;2023-06-26T02:58:49;16.40;;;15.40;;
16634;SDS011;8431;52.458;9.998;2023-06-26T03:01:16;17.95;;;16.88;;
16634;SDS011;8431;52.458;9.998;2023-06-26T03:03:44;16.05;;;15.15;;
16634;SDS011;8431;52.458;9.998;2023-06-26T03:06:12;17.27;;;15.85;;
16634;SDS011;8431;52.458;9.998;2023-06-26T03:08:40;17.38;;;16.23;;
16634;SDS011;8431;52.458;9.998;2023-06-26T03:11:08;17.90;;;16.65;;
16634;SDS011;8431;52.458;9.998;2023-06-26T03:13:36;16.65;;;15.60;;
16634;SDS011;8431;52.458;9.998;2023-06-26T03:16:03;17.45;;;16.25;;
16634;SDS011;8431;52.458;9.998;2023-06-26T03:18:30;17.25;;;15.95;;
16634;SDS011;8431;52.458;9.998;2023-06-26T03:20:57;17.33;;;16.00;;
16634;SDS011;8431;52.458;9.998;2023-06-26T03:23:24;17.17;;;15.95;;
16634;SDS011;8431;52.458;9.998;2023-06-26T03:25:53;16.63;;;15.63;;
16634;SDS011;8431;52.458;9.998;2023-06-26T03:28:20;16.38;;;15.38;;
16634;SDS011;8431;52.458;9.998;2023-06-26T03:30:47;17.10;;;16.00;;
16634;SDS011;8431;52.458;9.998;2023-06-26T03:33:14;16.67;;;15.30;;
16634;SDS011;8431;52.458;9.998;2023-06-26T03:35:41;15.18;;;14.13;;
16634;SDS011;8431;52.458;9.998;2023-06-26T03:38:08;15.82;;;14.85;;
16634;SDS011;8431;52.458;9.998;2023-06-26T03:40:35;16.02;;;15.13;;
16634;SDS011;8431;52.458;9.998;2023-06-26T03:43:03;16.25;;;15.27;;
16634;SDS011;8431;52.458;9.998;2023-06-26T03:45:30;17.15;;;15.75;;
16634;SDS011;8431;52.458;9.998;2023-06-26T03:47:59;16.17;;;15.27;;
16634;SDS011;8431;52.458;9.998;2023-06-26T03:50:26;16.45;;;15.32;;
16634;SDS011;8431;52.458;9.998;2023-06-26T03:52:53;16.10;;;14.95;;
16634;SDS011;8431;52.458;9.998;2023-06-26T03:55:20;15.80;;;14.85;;
16634;SDS011;8431;52.458;9.998;2023-06-26T03:57:49;16.55;;;15.52;;
16634;SDS011;8431;52.458;9.998;2023-06-26T04:00:17;16.80;;;15.80;;
16634;SDS011;8431;52.458;9.998;2023-06-26T04:02:45;15.63;;;14.63;;
16634;SDS011;8431;52.458;9.998;2023-06-26T04:05:12;15.27;;;14.48;;
16634;SDS011;8431;52.458;9.998;2023-06-26T04:07:39;14.68;;;13.88;;
16634;SDS011;8431;52.458;9.998;2023-06-26T04:10:06;15.75;;;14.70;;
16634;SDS011;8431;52.458;9.998;2023-06-26T04:12:34;15.60;;;14.60;;
16634;SDS011;8431;52.458;9.998;2023-06-26T04:15:01;15.05;;;14.25;;
16634;SDS011;8431;52.458;9.998;2023-06-26T04:17:30;14.63;;;13.65;;
16634;SDS011;8431;52.458;9.998;2023-06-26T04:19:57;14.65;;;13.82;;
16634;SDS011;8431;52.458;9.998;2023-06-26T04:22:24;14.55;;;13.60;;
16634;SDS011;8431;52.458;9.998;2023-06-26T04:24:51;14.30;;;13.40;;
16634;SDS011;8431;52.458;9.998;2023-06-26T04:27:18;13.93;;;13.15;;
16634;SDS011;8431;52.458;9.998;2023-06-26T04:29:45;15.23;;;14.30;;
16634;SDS011;8431;52.458;9.998;2023-06-26T04:32:12;14.52;;;13.63;;
16634;SDS011;8431;52.458;9.998;2023-06-26T04:34:40;14.48;;;13.57;;
16634;SDS011;8431;52.458;9.998;2023-06-26T04:37:09;14.63;;;13.82;;
16634;SDS011;8431;52.458;9.998;2023-06-26T04:39:36;14.60;;;13.90;;
16634;SDS011;8431;52.458;9.998;2023-06-26T04:42:04;15.20;;;14.40;;
16634;SDS011;8431;52.458;9.998;2023-06-26T04:44:32;14.80;;;13.93;;
16634;SDS011;8431;52.458;9.998;2023-06-26T04:46:59;15.02;;;14.13;;
16634;SDS011;8431;52.458;9.998;2023-06-26T04:51:57;15.27;;;14.38;;
16634;SDS011;8431;52.458;9.998;2023-06-26T04:54:25;15.40;;;14.43;;
16634;SDS011;8431;52.458;9.998;2023-06-26T04:56:53;14.75;;;14.02;;
16634;SDS011;8431;52.458;9.998;2023-06-26T04:59:20;15.82;;;14.82;;
16634;SDS011;8431;52.458;9.998;2023-06-26T05:01:47;14.75;;;13.85;;
16634;SDS011;8431;52.458;9.998;2023-06-26T05:04:14;14.68;;;13.90;;
16634;SDS011;8431;52.458;9.998;2023-06-26T05:06:41;14.73;;;13.77;;
16634;SDS011;8431;52.458;9.998;2023-06-26T05:09:09;15.38;;;14.45;;
16634;SDS011;8431;52.458;9.998;2023-06-26T05:11:37;15.43;;;14.52;;
16634;SDS011;8431;52.458;9.998;2023-06-26T05:14:04;15.35;;;14.55;;
16634;SDS011;8431;52.458;9.998;2023-06-26T05:16:32;14.95;;;14.15;;
16634;SDS011;8431;52.458;9.998;2023-06-26T05:19:00;15.25;;;14.40;;
16634;SDS011;8431;52.458;9.998;2023-06-26T05:21:27;15.02;;;14.25;;
16634;SDS011;8431;52.458;9.998;2023-06-26T05:23:55;14.45;;;13.65;;
16634;SDS011;8431;52.458;9.998;2023-06-26T05:26:25;14.93;;;14.10;;
16634;SDS011;8431;52.458;9.998;2023-06-26T05:28:53;14.38;;;13.57;;
16634;SDS011;8431;52.458;9.998;2023-06-26T05:31:21;15.57;;;14.68;;
16634;SDS011;8431;52.458;9.998;2023-06-26T05:33:49;16.48;;;15.23;;
16634;SDS011;8431;52.458;9.998;2023-06-26T05:36:19;14.98;;;14.18;;
16634;SDS011;8431;52.458;9.998;2023-06-26T05:38:49;15.27;;;14.27;;
16634;SDS011;8431;52.458;9.998;2023-06-26T05:41:17;14.35;;;13.60;;
16634;SDS011;8431;52.458;9.998;2023-06-26T05:43:46;15.02;;;14.02;;
16634;SDS011;8431;52.458;9.998;2023-06-26T05:46:13;14.48;;;13.68;;
16634;SDS011;8431;52.458;9.998;2023-06-26T05:48:40;15.90;;;14.93;;
16634;SDS011;8431;52.458;9.998;2023-06-26T05:51:07;15.35;;;14.55;;
16634;SDS011;8431;52.458;9.998;2023-06-26T05:53:35;14.40;;;13.50;;
16634;SDS011;8431;52.458;9.998;2023-06-26T05:56:03;14.38;;;13.68;;
16634;SDS011;8431;52.458;9.998;2023-06-26T05:58:30;14.40;;;13.52;;
16634;SDS011;8431;52.458;9.998;2023-06-26T06:00:59;15.10;;;14.20;;
16634;SDS011;8431;52.458;9.998;2023-06-26T06:03:26;14.70;;;13.85;;
16634;SDS011;8431;52.458;9.998;2023-06-26T06:05:53;14.57;;;13.60;;
16634;SDS011;8431;52.458;9.998;2023-06-26T06:08:20;15.40;;;14.45;;
16634;SDS011;8431;52.458;9.998;2023-06-26T06:10:50;15.63;;;14.63;;
16634;SDS011;8431;52.458;9.998;2023-06-26T06:13:19;15.82;;;14.93;;
16634;SDS011;8431;52.458;9.998;2023-06-26T06:15:46;15.15;;;14.25;;
16634;SDS011;8431;52.458;9.998;2023-06-26T06:18:14;15.57;;;14.88;;
16634;SDS011;8431;52.458;9.998;2023-06-26T06:20:42;16.27;;;15.38;;
16634;SDS011;8431;52.458;9.998;2023-06-26T06:23:10;15.57;;;14.55;;
16634;SDS011;8431;52.458;9.998;2023-06-26T06:25:37;15.55;;;14.55;;
16634;SDS011;8431;52.458;9.998;2023-06-26T06:28:04;15.38;;;14.57;;
16634;SDS011;8431;52.458;9.998;2023-06-26T06:30:31;15.13;;;14.23;;
16634;SDS011;8431;52.458;9.998;2023-06-26T06:32:58;14.55;;;13.85;;
16634;SDS011;8431;52.458;9.998;2023-06-26T06:35:29;14.85;;;14.13;;
16634;SDS011;8431;52.458;9.998;2023-06-26T06:37:58;13.82;;;13.10;;
16634;SDS011;8431;52.458;9.998;2023-06-26T06:40:25;13.73;;;12.88;;
16634;SDS011;8431;52.458;9.998;2023-06-26T06:42:53;14.40;;;13.50;;
16634;SDS011;8431;52.458;9.998;2023-06-26T06:45:20;14.40;;;13.60;;
16634;SDS011;8431;52.458;9.998;2023-06-26T06:47:47;15.07;;;14.30;;
16634;SDS011;8431;52.458;9.998;2023-06-26T06:50:13;14.80;;;13.90;;
16634;SDS011;8431;52.458;9.998;2023-06-26T06:52:42;14.90;;;14.00;;
16634;SDS011;8431;52.458;9.998;2023-06-26T06:55:09;15.98;;;15.02;;
16634;SDS011;8431;52.458;9.998;2023-06-26T06:57:37;14.52;;;13.63;;
16634;SDS011;8431;52.458;9.998;2023-06-26T07:00:05;15.45;;;14.60;;
16634;SDS011;8431;52.458;9.998;2023-06-26T07:02:37;14.85;;;14.05;;
16634;SDS011;8431;52.458;9.998;2023-06-26T07:05:05;14.40;;;13.60;;
16634;SDS011;8431;52.458;9.998;2023-06-26T07:07:33;14.60;;;13.80;;
16634;SDS011;8431;52.458;9.998;2023-06-26T07:10:03;15.32;;;14.23;;
16634;SDS011;8431;52.458;9.998;2023-06-26T07:12:31;14.85;;;13.95;;
16634;SDS011;8431;52.458;9.998;2023-06-26T07:14:59;14.85;;;13.95;;
16634;SDS011;8431;52.458;9.998;2023-06-26T07:17:27;15.27;;;14.27;;
16634;SDS011;8431;52.458;9.998;2023-06-26T07:19:54;15.52;;;14.63;;
16634;SDS011;8431;52.458;9.998;2023-06-26T07:22:29;16.50;;;15.50;;
16634;SDS011;8431;52.458;9.998;2023-06-26T07:24:56;15.52;;;14.73;;
16634;SDS011;8431;52.458;9.998;2023-06-26T07:27:26;14.85;;;13.93;;
16634;SDS011;8431;52.458;9.998;2023-06-26T07:29:53;15.38;;;14.40;;
16634;SDS011;8431;52.458;9.998;2023-06-26T07:32:20;15.52;;;14.65;;
16634;SDS011;8431;52.458;9.998;2023-06-26T07:34:46;16.50;;;15.25;;
16634;SDS011;8431;52.458;9.998;2023-06-26T07:37:13;16.13;;;14.73;;
16634;SDS011;8431;52.458;9.998;2023-06-26T07:39:40;16.50;;;15.32;;
16634;SDS011;8431;52.458;9.998;2023-06-26T07:42:07;14.80;;;14.00;;
16634;SDS011;8431;52.458;9.998;2023-06-26T07:44:36;16.48;;;14.90;;
16634;SDS011;8431;52.458;9.998;2023-06-26T07:47:03;15.82;;;15.00;;
16634;SDS011;8431;52.458;9.998;2023-06-26T07:49:30;15.90;;;14.95;;
16634;SDS011;8431;52.458;9.998;2023-06-26T07:52:06;15.77;;;14.77;;
16634;SDS011;8431;52.458;9.998;2023-06-26T07:54:35;15.95;;;15.02;;
16634;SDS011;8431;52.458;9.998;2023-06-26T07:57:03;16.13;;;15.32;;
16634;SDS011;8431;52.458;9.998;2023-06-26T07:59:32;16.17;;;15.27;;
16634;SDS011;8431;52.458;9.998;2023-06-26T08:02:01;16.52;;;15.63;;
16634;SDS011;8431;52.458;9.998;2023-06-26T08:04:28;17.73;;;16.77;;
16634;SDS011;8431;52.458;9.998;2023-06-26T08:06:57;16.70;;;15.70;;
16634;SDS011;8431;52.458;9.998;2023-06-26T08:09:29;15.73;;;14.93;;
16634;SDS011;8431;52.458;9.998;2023-06-26T08:11:56;16.00;;;15.10;;
16634;SDS011;8431;52.458;9.998;2023-06-26T08:14:23;17.00;;;15.90;;
16634;SDS011;8431;52.458;9.998;2023-06-26T08:16:51;16.17;;;15.10;;
16634;SDS011;8431;52.458;9.998;2023-06-26T08:19:19;16.52;;;15.63;;
16634;SDS011;8431;52.458;9.998;2023-06-26T08:21:46;16.80;;;15.80;;
16634;SDS011;8431;52.458;9.998;2023-06-26T08:24:16;16.75;;;15.63;;
16634;SDS011;8431;52.458;9.998;2023-06-26T08:26:44;16.38;;;15.35;;
16634;SDS011;8431;52.458;9.998;2023-06-26T08:29:12;16.90;;;15.80;;
16634;SDS011;8431;52.458;9.998;2023-06-26T08:31:39;16.08;;;14.98;;
16634;SDS011;8431;52.458;9.998;2023-06-26T08:34:20;15.82;;;14.82;;
16634;SDS011;8431;52.458;9.998;2023-06-26T08:36:51;15.60;;;14.52;;
16634;SDS011;8431;52.458;9.998;2023-06-26T08:39:19;15.82;;;14.82;;
16634;SDS011;8431;52.458;9.998;2023-06-26T08:41:51;16.58;;;15.30;;
16634;SDS011;8431;52.458;9.998;2023-06-26T08:47:32;15.75;;;14.85;;
16634;SDS011;8431;52.458;9.998;2023-06-26T08:50:14;17.33;;;16.33;;
16634;SDS011;8431;52.458;9.998;2023-06-26T08:53:00;17.65;;;16.63;;
16634;SDS011;8431;52.458;9.998;2023-06-26T08:55:32;17.65;;;16.60;;
16634;SDS011;8431;52.458;9.998;2023-06-26T08:58:03;18.20;;;17.00;;
16634;SDS011;8431;52.458;9.998;2023-06-26T09:00:30;17.88;;;16.77;;
16634;SDS011;8431;52.458;9.998;2023-06-26T09:02:58;17.52;;;16.23;;
16634;SDS011;8431;52.458;9.998;2023-06-26T09:05:27;18.42;;;17.17;;
16634;SDS011;8431;52.458;9.998;2023-06-26T09:07:55;17.85;;;16.90;;
16634;SDS011;8431;52.458;9.998;2023-06-26T09:10:22;16.92;;;15.93;;
16634;SDS011;8431;52.458;9.998;2023-06-26T09:12:49;17.60;;;16.70;;
16634;SDS011;8431;52.458;9.998;2023-06-26T09:15:18;18.85;;;16.88;;
16634;SDS011;8431;52.458;9.998;2023-06-26T09:17:47;17.55;;;16.20;;
16634;SDS011;8431;52.458;9.998;2023-06-26T09:20:15;18.77;;;17.08;;
16634;SDS011;8431;52.458;9.998;2023-06-26T09:22:43;18.48;;;17.38;;
16634;SDS011;8431;52.458;9.998;2023-06-26T09:25:14;20.02;;;17.58;;
16634;SDS011;8431;52.458;9.998;2023-06-26T09:27:42;17.63;;;16.58;;
16634;SDS011;8431;52.458;9.998;2023-06-26T09:30:19;17.85;;;16.65;;
16634;SDS011;8431;52.458;9.998;2023-06-26T09:32:46;18.08;;;16.83;;
16634;SDS011;8431;52.458;9.998;2023-06-26T09:35:15;18.45;;;17.23;;
16634;SDS011;8431;52.458;9.998;2023-06-26T09:37:44;17.80;;;16.67;;
16634;SDS011;8431;52.458;9.998;2023-06-26T09:40:13;18.27;;;17.17;;
16634;SDS011;8431;52.458;9.998;2023-06-26T09:42:41;18.90;;;17.35;;
16634;SDS011;8431;52.458;9.998;2023-06-26T09:45:12;17.98;;;16.60;;
16634;SDS011;8431;52.458;9.998;2023-06-26T09:47:45;17.65;;;16.55;;
16634;SDS011;8431;52.458;9.998;2023-06-26T09:50:20;18.85;;;17.65;;
16634;SDS011;8431;52.458;9.998;2023-06-26T09:52:52;19.30;;;18.00;;
16634;SDS011;8431;52.458;9.998;2023-06-26T09:55:19;18.85;;;17.63;;
16634;SDS011;8431;52.458;9.998;2023-06-26T09:57:47;19.00;;;17.88;;
16634;SDS011;8431;52.458;9.998;2023-06-26T10:00:16;20.30;;;19.00;;
16634;SDS011;8431;52.458;9.998;2023-06-26T10:02:45;19.23;;;17.90;;
16634;SDS011;8431;52.458;9.998;2023-06-26T10:05:12;20.80;;;19.50;;
16634;SDS011;8431;52.458;9.998;2023-06-26T10:07:39;19.27;;;17.98;;
16634;SDS011;8431;52.458;9.998;2023-06-26T10:10:16;19.40;;;17.95;;
16634;SDS011;8431;52.458;9.998;2023-06-26T10:12:43;20.52;;;19.20;;
16634;SDS011;8431;52.458;9.998;2023-06-26T10:15:16;20.27;;;18.60;;
16634;SDS011;8431;52.458;9.998;2023-06-26T10:18:00;19.08;;;17.77;;
16634;SDS011;8431;52.458;9.998;2023-06-26T10:20:27;18.70;;;17.40;;
16634;SDS011;8431;52.458;9.998;2023-06-26T10:22:55;19.85;;;18.30;;
16634;SDS011;8431;52.458;9.998;2023-06-26T10:27:59;20.48;;;19.05;;
16634;SDS011;8431;52.458;9.998;2023-06-26T10:30:28;20.70;;;19.20;;
16634;SDS011;8431;52.458;9.998;2023-06-26T10:32:59;21.80;;;20.20;;
16634;SDS011;8431;52.458;9.998;2023-06-26T10:35:28;22.95;;;21.35;;
16634;SDS011;8431;52.458;9.998;2023-06-26T10:38:00;20.60;;;19.17;;
16634;SDS011;8431;52.458;9.998;2023-06-26T10:40:33;21.90;;;19.85;;
16634;SDS011;8431;52.458;9.998;2023-06-26T10:43:09;22.73;;;20.50;;
16634;SDS011;8431;52.458;9.998;2023-06-26T10:45:36;22.65;;;20.80;;
16634;SDS011;8431;52.458;9.998;2023-06-26T10:48:08;21.10;;;19.60;;
16634;SDS011;8431;52.458;9.998;2023-06-26T10:50:36;19.63;;;18.33;;
16634;SDS011;8431;52.458;9.998;2023-06-26T10:53:14;20.10;;;18.60;;
16634;SDS011;8431;52.458;9.998;2023-06-26T10:55:48;19.75;;;18.05;;
16634;SDS011;8431;52.458;9.998;2023-06-26T10:58:31;20.42;;;18.73;;
16634;SDS011;8431;52.458;9.998;2023-06-26T11:01:16;20.40;;;19.00;;
16634;SDS011;8431;52.458;9.998;2023-06-26T11:03:46;20.10;;;18.90;;
16634;SDS011;8431;52.458;9.998;2023-06-26T11:06:15;21.73;;;20.05;;
16634;SDS011;8431;52.458;9.998;2023-06-26T11:08:44;22.77;;;20.58;;
16634;SDS011;8431;52.458;9.998;2023-06-26T11:11:13;20.45;;;19.05;;
16634;SDS011;8431;52.458;9.998;2023-06-26T11:13:41;22.95;;;21.25;;
16634;SDS011;8431;52.458;9.998;2023-06-26T11:18:47;22.35;;;20.52;;
16634;SDS011;8431;52.458;9.998;2023-06-26T11:21:15;21.42;;;19.67;;
16634;SDS011;8431;52.458;9.998;2023-06-26T11:23:46;21.27;;;19.70;;
16634;SDS011;8431;52.458;9.998;2023-06-26T11:26:20;19.90;;;18.60;;
16634;SDS011;8431;52.458;9.998;2023-06-26T11:28:47;21.10;;;19.40;;
16634;SDS011;8431;52.458;9.998;2023-06-26T11:34:05;19.83;;;18.00;;
16634;SDS011;8431;52.458;9.998;2023-06-26T11:36:34;19.08;;;17.40;;
16634;SDS011;8431;52.458;9.998;2023-06-26T11:39:02;20.00;;;17.98;;
16634;SDS011;8431;52.458;9.998;2023-06-26T11:41:33;18.27;;;16.88;;
16634;SDS011;8431;52.458;9.998;2023-06-26T11:44:04;19.85;;;18.45;;
16634;SDS011;8431;52.458;9.998;2023-06-26T11:46:33;19.15;;;17.63;;
16634;SDS011;8431;52.458;9.998;2023-06-26T11:49:02;19.50;;;18.00;;
16634;SDS011;8431;52.458;9.998;2023-06-26T11:51:30;18.88;;;17.42;;
16634;SDS011;8431;52.458;9.998;2023-06-26T11:54:00;17.80;;;16.67;;
16634;SDS011;8431;52.458;9.998;2023-06-26T11:56:29;18.38;;;17.08;;
16634;SDS011;8431;52.458;9.998;2023-06-26T11:59:01;18.98;;;17.27;;
16634;SDS011;8431;52.458;9.998;2023-06-26T12:01:30;18.45;;;17.05;;
16634;SDS011;8431;52.458;9.998;2023-06-26T12:04:00;19.05;;;17.52;;
16634;SDS011;8431;52.458;9.998;2023-06-26T12:06:29;18.35;;;17.05;;
16634;SDS011;8431;52.458;9.998;2023-06-26T12:11:31;17.25;;;15.70;;
16634;SDS011;8431;52.458;9.998;2023-06-26T12:13:59;17.90;;;16.73;;
16634;SDS011;8431;52.458;9.998;2023-06-26T12:16:34;19.02;;;17.63;;
16634;SDS011;8431;52.458;9.998;2023-06-26T12:19:03;16.58;;;15.38;;
16634;SDS011;8431;52.458;9.998;2023-06-26T12:21:43;14.70;;;13.80;;
16634;SDS011;8431;52.458;9.998;2023-06-26T12:24:13;15.30;;;14.15;;
16634;SDS011;8431;52.458;9.998;2023-06-26T12:26:41;16.70;;;15.45;;
16634;SDS011;8431;52.458;9.998;2023-06-26T12:29:11;15.57;;;14.50;;
16634;SDS011;8431;52.458;9.998;2023-06-26T12:31:40;16.20;;;15.30;;
16634;SDS011;8431;52.458;9.998;2023-06-26T12:36:42;15.43;;;14.43;;
16634;SDS011;8431;52.458;9.998;2023-06-26T12:39:10;15.50;;;14.32;;
16634;SDS011;8431;52.458;9.998;2023-06-26T12:41:47;16.38;;;15.27;;
16634;SDS011;8431;52.458;9.998;2023-06-26T12:44:24;14.65;;;13.65;;
16634;SDS011;8431;52.458;9.998;2023-06-26T12:46:53;15.13;;;14.05;;
16634;SDS011;8431;52.458;9.998;2023-06-26T12:49:28;15.60;;;14.30;;
16634;SDS011;8431;52.458;9.998;2023-06-26T12:51:57;16.75;;;15.32;;
16634;SDS011;8431;52.458;9.998;2023-06-26T12:54:24;16.52;;;15.43;;
16634;SDS011;8431;52.458;9.998;2023-06-26T12:56:51;15.75;;;14.57;;
16634;SDS011;8431;52.458;9.998;2023-06-26T12:59:23;15.73;;;14.75;;
16634;SDS011;8431;52.458;9.998;2023-06-26T13:01:50;16.27;;;15.05;;
16634;SDS011;8431;52.458;9.998;2023-06-26T13:04:17;17.15;;;15.63;;
16634;SDS011;8431;52.458;9.998;2023-06-26T13:06:44;16.20;;;15.10;;
16634;SDS011;8431;52.458;9.998;2023-06-26T13:09:11;16.42;;;15.43;;
16634;SDS011;8431;52.458;9.998;2023-06-26T13:11:39;16.35;;;15.30;;
16634;SDS011;8431;52.458;9.998;2023-06-26T13:14:06;14.75;;;13.73;;
16634;SDS011;8431;52.458;9.998;2023-06-26T13:19:06;15.48;;;14.45;;
16634;SDS011;8431;52.458;9.998;2023-06-26T13:21:33;13.98;;;12.82;;
16634;SDS011;8431;52.458;9.998;2023-06-26T13:24:00;15.30;;;14.18;;
16634;SDS011;8431;52.458;9.998;2023-06-26T13:26:29;13.98;;;13.07;;
16634;SDS011;8431;52.458;9.998;2023-06-26T13:28:57;13.93;;;13.05;;
16634;SDS011;8431;52.458;9.998;2023-06-26T13:31:39;14.30;;;13.40;;
16634;SDS011;8431;52.458;9.998;2023-06-26T13:34:06;14.45;;;13.73;;
16634;SDS011;8431;52.458;9.998;2023-06-26T13:36:33;15.15;;;14.25;;
16634;SDS011;8431;52.458;9.998;2023-06-26T13:39:00;14.73;;;13.82;;
16634;SDS011;8431;52.458;9.998;2023-06-26T13:41:30;15.15;;;14.10;;
16634;SDS011;8431;52.458;9.998;2023-06-26T13:43:57;15.13;;;14.20;;
16634;SDS011;8431;52.458;9.998;2023-06-26T13:46:24;14.90;;;13.75;;
16634;SDS011;8431;52.458;9.998;2023-06-26T13:48:54;15.43;;;14.32;;
16634;SDS011;8431;52.458;9.998;2023-06-26T13:51:21;15.52;;;14.40;;
16634;SDS011;8431;52.458;9.998;2023-06-26T13:53:48;17.92;;;13.95;;
16634;SDS011;8431;52.458;9.998;2023-06-26T13:56:15;15.05;;;14.02;;
16634;SDS011;8431;52.458;9.998;2023-06-26T14:02:28;14.25;;;13.13;;
16634;SDS011;8431;52.458;9.998;2023-06-26T14:08:01;13.68;;;12.82;;
16634;SDS011;8431;52.458;9.998;2023-06-26T14:10:47;14.07;;;13.07;;
16634;SDS011;8431;52.458;9.998;2023-06-26T14:13:34;14.43;;;13.35;;
16634;SDS011;8431;52.458;9.998;2023-06-26T14:16:01;14.73;;;13.75;;
16634;SDS011;8431;52.458;9.998;2023-06-26T14:18:30;14.68;;;13.45;;
16634;SDS011;8431;52.458;9.998;2023-06-26T14:20:58;15.00;;;13.60;;
16634;SDS011;8431;52.458;9.998;2023-06-26T14:23:26;12.77;;;12.18;;
16634;SDS011;8431;52.458;9.998;2023-06-26T14:26:01;13.32;;;12.63;;
16634;SDS011;8431;52.458;9.998;2023-06-26T14:28:28;14.10;;;13.20;;
16634;SDS011;8431;52.458;9.998;2023-06-26T14:31:04;15.20;;;14.18;;
16634;SDS011;8431;52.458;9.998;2023-06-26T14:33:31;14.10;;;13.30;;
16634;SDS011;8431;52.458;9.998;2023-06-26T14:36:03;13.57;;;12.75;;
16634;SDS011;8431;52.458;9.998;2023-06-26T14:38:30;13.38;;;12.68;;
16634;SDS011;8431;52.458;9.998;2023-06-26T14:40:57;11.82;;;11.13;;
16634;SDS011;8431;52.458;9.998;2023-06-26T14:43:24;12.07;;;11.38;;
16634;SDS011;8431;52.458;9.998;2023-06-26T14:48:24;13.20;;;12.07;;
16634;SDS011;8431;52.458;9.998;2023-06-26T14:50:51;13.90;;;13.02;;
16634;SDS011;8431;52.458;9.998;2023-06-26T14:53:20;15.35;;;14.27;;
16634;SDS011;8431;52.458;9.998;2023-06-26T14:55:47;12.80;;;11.90;;
16634;SDS011;8431;52.458;9.998;2023-06-26T14:58:14;12.65;;;11.90;;
16634;SDS011;8431;52.458;9.998;2023-06-26T15:00:41;14.05;;;13.35;;
16634;SDS011;8431;52.458;9.998;2023-06-26T15:03:09;14.02;;;13.00;;
16634;SDS011;8431;52.458;9.998;2023-06-26T15:05:38;13.50;;;12.45;;
16634;SDS011;8431;52.458;9.998;2023-06-26T15:08:05;11.65;;;11.05;;
16634;SDS011;8431;52.458;9.998;2023-06-26T15:10:33;12.55;;;11.75;;
16634;SDS011;8431;52.458;9.998;2023-06-26T15:13:00;12.27;;;11.43;;